createdAt,value
2023-02-02T00:02:01.244Z,75.87
2023-02-02T00:07:07.603Z,67.28
2023-02-02T00:12:10.464Z,56.25
2023-02-02T00:17:13.270Z,68.70
2023-02-02T00:22:17.003Z,59.38
2023-02-02T00:27:19.525Z,52.90
2023-02-02T00:32:22.282Z,41.05
2023-02-02T00:37:26.394Z,38.20
2023-02-02T00:42:29.147Z,42.13
2023-02-02T00:47:31.762Z,41.03
2023-02-02T00:52:34.476Z,48.30
2023-02-02T00:57:39.617Z,43.95
2023-02-02T01:02:43.938Z,39.40
2023-02-02T01:08:05.199Z,41.40
2023-02-02T01:13:07.962Z,34.35
2023-02-02T01:18:10.694Z,19.42
2023-02-02T01:23:13.381Z,38.92
2023-02-02T01:28:15.910Z,37.33
2023-02-02T01:33:19.373Z,39.90
2023-02-02T01:38:23.015Z,23.17
2023-02-02T01:43:26.148Z,28.17
2023-02-02T01:48:33.092Z,15.05
2023-02-02T01:53:36.219Z,12.02
2023-02-02T01:58:40.921Z,21.10
2023-02-02T02:03:45.509Z,17.40
2023-02-02T02:09:00.732Z,12.45
2023-02-02T02:14:27.428Z,11.95
2023-02-02T02:20:02.293Z,14.38
2023-02-02T02:26:02.839Z,8.75
2023-02-02T02:31:06.185Z,21.45
2023-02-02T02:36:38.435Z,12.85
2023-02-02T02:41:53.095Z,15.30
2023-02-02T02:46:57.049Z,13.68
2023-02-02T02:52:01.051Z,16.23
2023-02-02T02:57:29.368Z,18.27
2023-02-02T03:03:16.550Z,20.25
2023-02-02T03:08:36.138Z,28.80
2023-02-02T03:13:41.064Z,24.05
2023-02-02T03:18:44.867Z,43.95
2023-02-02T03:23:47.619Z,51.30
2023-02-02T03:28:51.845Z,53.00
2023-02-02T03:33:55.569Z,22.73
2023-02-02T03:38:58.321Z,51.83
2023-02-02T03:44:01.015Z,41.83
2023-02-02T03:49:03.878Z,37.53
2023-02-02T03:54:06.602Z,51.35
2023-02-02T03:59:09.333Z,30.48
2023-02-02T04:04:12.366Z,40.13
2023-02-02T04:09:16.529Z,71.47
2023-02-02T04:14:19.314Z,45.97
2023-02-02T04:19:22.412Z,50.38
2023-02-02T04:24:25.030Z,42.38
2023-02-02T04:29:28.789Z,67.55
2023-02-02T04:34:31.962Z,54.70
2023-02-02T04:39:55.490Z,34.40
2023-02-02T04:44:58.375Z,62.03
2023-02-02T04:50:03.328Z,63.33
2023-02-02T04:55:06.271Z,54.83
2023-02-02T05:00:11.370Z,47.30
2023-02-02T05:05:14.699Z,34.55
2023-02-02T05:10:17.995Z,65.63
2023-02-02T05:15:24.328Z,55.55
2023-02-02T05:20:27.182Z,43.33
2023-02-02T05:25:29.745Z,74.30
2023-02-02T05:30:33.647Z,38.10
2023-02-02T05:35:38.713Z,35.87
2023-02-02T05:40:41.507Z,47.15
2023-02-02T05:45:46.733Z,42.97
2023-02-02T05:50:58.229Z,41.38
2023-02-02T05:56:00.791Z,45.63
2023-02-02T06:01:03.830Z,41.13
2023-02-02T06:06:07.181Z,40.65
2023-02-02T06:11:15.880Z,27.77
2023-02-02T06:16:18.725Z,47.00
2023-02-02T06:21:24.478Z,61.35
2023-02-02T06:26:27.123Z,55.00
2023-02-02T06:31:29.986Z,45.40
2023-02-02T06:36:32.577Z,31.20
2023-02-02T06:41:38.100Z,40.30
2023-02-02T06:46:40.950Z,46.90
2023-02-02T06:51:46.718Z,47.53
2023-02-02T06:56:49.587Z,50.83
2023-02-02T07:01:52.406Z,49.55
2023-02-02T07:06:54.966Z,42.20
2023-02-02T07:11:59.425Z,49.22
2023-02-02T07:17:02.065Z,53.22
2023-02-02T07:22:23.015Z,41.47
2023-02-02T07:27:25.805Z,50.17
2023-02-02T07:32:28.567Z,49.17
2023-02-02T07:37:31.517Z,48.05
2023-02-02T07:42:34.113Z,40.95
2023-02-02T07:47:38.155Z,37.85
2023-02-02T07:52:41.019Z,47.08
2023-02-02T07:57:43.627Z,56.65
2023-02-02T08:02:49.725Z,52.53
2023-02-02T08:07:52.527Z,53.70
2023-02-02T08:12:55.245Z,60.53
2023-02-02T08:17:59.258Z,56.40
2023-02-02T08:23:02.280Z,50.30
2023-02-02T08:28:06.104Z,49.25
2023-02-02T08:33:08.857Z,40.37
2023-02-02T08:38:11.480Z,45.38
2023-02-02T08:43:16.458Z,54.45
2023-02-02T08:48:21.700Z,40.20
2023-02-02T08:53:24.980Z,42.97
2023-02-02T08:58:30.085Z,45.78
2023-02-02T09:03:34.577Z,33.83
2023-02-02T09:08:37.429Z,50.47
2023-02-02T09:13:42.416Z,44.13
2023-02-02T09:18:51.637Z,41.65
2023-02-02T09:23:54.782Z,48.17
2023-02-02T09:28:59.404Z,44.75
2023-02-02T09:39:10.026Z,42.50
2023-02-02T09:44:40.484Z,53.45
2023-02-02T09:50:06.332Z,42.88
2023-02-02T09:55:31.309Z,47.65
2023-02-02T10:00:40.168Z,52.00
2023-02-02T10:06:13.689Z,53.17
2023-02-02T10:11:31.232Z,26.07
2023-02-02T10:16:35.628Z,29.00
2023-02-02T10:22:04.949Z,23.70
2023-02-02T10:27:37.675Z,25.92
2023-02-02T10:32:49.068Z,35.25
2023-02-02T10:38:21.290Z,47.95
2023-02-02T10:43:48.673Z,45.25
2023-02-02T10:48:53.021Z,37.38
2023-02-02T10:53:58.439Z,33.97
2023-02-02T10:59:12.076Z,41.95
2023-02-02T11:04:33.059Z,22.97
2023-02-02T11:09:42.700Z,30.63
2023-02-02T11:15:25.541Z,34.67
2023-02-02T11:20:39.083Z,29.15
2023-02-02T11:25:43.325Z,30.08
2023-02-02T11:30:52.536Z,37.08
2023-02-02T11:36:20.535Z,36.60
2023-02-02T11:41:26.294Z,24.50
2023-02-02T11:46:37.482Z,37.15
2023-02-02T11:51:40.358Z,41.78
2023-02-02T11:56:45.528Z,37.22
2023-02-02T12:01:48.360Z,35.90
2023-02-02T12:06:51.114Z,35.25
2023-02-02T12:12:15.665Z,21.05
2023-02-02T12:17:30.464Z,27.75
2023-02-02T12:22:47.958Z,28.73
2023-02-02T12:28:32.448Z,25.23
2023-02-02T12:33:54.796Z,27.90
2023-02-02T12:39:34.675Z,36.88
2023-02-02T12:44:53.447Z,23.33
2023-02-02T12:50:23.735Z,15.48
2023-02-02T12:55:46.697Z,29.70
2023-02-02T13:01:16.400Z,28.77
2023-02-02T13:06:34.377Z,36.63
2023-02-02T13:12:15.885Z,24.25
2023-02-02T13:17:43.105Z,23.65
2023-02-02T13:22:45.854Z,34.45
2023-02-02T13:27:49.772Z,32.67
2023-02-02T13:32:53.616Z,38.30
2023-02-02T13:38:04.241Z,24.50
2023-02-02T13:43:06.840Z,21.02
2023-02-02T13:48:30.279Z,30.48
2023-02-02T13:53:46.417Z,28.35
2023-02-02T13:59:04.055Z,24.33
2023-02-02T14:04:25.428Z,21.33
2023-02-02T14:09:29.627Z,27.25
2023-02-02T14:14:32.169Z,23.75
2023-02-02T14:19:35.931Z,19.50
2023-02-02T14:24:44.032Z,17.88
2023-02-02T14:29:47.288Z,16.88
2023-02-02T14:34:51.909Z,12.32
2023-02-02T14:45:11.381Z,13.85
2023-02-02T14:50:38.802Z,10.25
2023-02-02T14:56:12.508Z,9.38
2023-02-02T15:01:34.585Z,12.80
2023-02-02T15:06:40.575Z,8.45
2023-02-02T15:12:02.116Z,8.82
2023-02-02T15:17:41.315Z,5.80
2023-02-02T15:23:05.073Z,7.43
2023-02-02T15:28:35.703Z,7.45
2023-02-02T15:33:52.493Z,6.97
2023-02-02T15:39:02.064Z,12.95
2023-02-02T15:44:29.807Z,9.35
2023-02-02T15:49:35.615Z,14.55
2023-02-02T15:54:41.432Z,19.48
2023-02-02T15:59:46.000Z,21.08
2023-02-02T16:05:47.612Z,36.25
2023-02-02T16:10:51.297Z,29.47
2023-02-02T16:16:02.506Z,15.32
2023-02-02T16:21:18.596Z,25.90
2023-02-02T16:26:27.921Z,24.05
2023-02-02T16:31:32.246Z,31.40
2023-02-02T16:36:34.988Z,26.70
2023-02-02T16:41:37.729Z,28.40
2023-02-02T16:46:47.203Z,18.00
2023-02-02T16:52:07.283Z,17.30
2023-02-02T16:57:18.498Z,30.90
2023-02-02T17:02:41.101Z,30.95
2023-02-02T17:07:49.345Z,37.53
2023-02-02T17:12:53.825Z,38.00
2023-02-02T17:17:56.533Z,32.47
2023-02-02T17:23:03.164Z,16.40
2023-02-02T17:28:11.309Z,34.95
2023-02-02T17:33:15.850Z,44.20
2023-02-02T17:38:19.131Z,36.88
2023-02-02T17:43:22.261Z,29.80
2023-02-02T17:48:25.119Z,38.10
2023-02-02T17:53:33.364Z,49.80
2023-02-02T17:58:36.873Z,31.80
2023-02-02T18:03:40.873Z,31.20
2023-02-02T18:08:45.585Z,36.60
2023-02-02T18:13:48.163Z,42.15
2023-02-02T18:18:53.683Z,29.45
2023-02-02T18:23:56.209Z,28.70
2023-02-02T18:29:04.611Z,35.63
2023-02-02T18:34:07.090Z,41.08
2023-02-02T18:39:09.989Z,45.97
2023-02-02T18:44:12.524Z,48.47
2023-02-02T18:49:16.068Z,38.70
2023-02-02T18:54:18.663Z,35.78
2023-02-02T18:59:21.300Z,29.60
2023-02-02T19:04:23.973Z,34.53
2023-02-02T19:09:27.000Z,40.40
2023-02-02T19:14:36.771Z,43.47
2023-02-02T19:19:40.599Z,50.22
2023-02-02T19:24:43.177Z,52.03
2023-02-02T19:29:47.480Z,36.50
2023-02-02T19:34:52.429Z,38.63
2023-02-02T19:40:21.332Z,37.10
2023-02-02T19:45:29.162Z,54.85
2023-02-02T19:50:37.850Z,41.03
2023-02-02T19:55:40.869Z,36.22
2023-02-02T20:00:45.023Z,35.65
2023-02-02T20:05:50.179Z,36.28
2023-02-02T20:11:00.721Z,52.58
2023-02-02T20:16:06.306Z,49.50
2023-02-02T20:21:23.983Z,32.85
2023-02-02T20:26:48.224Z,41.90
2023-02-02T20:31:53.096Z,36.67
2023-02-02T20:37:30.627Z,27.10
2023-02-02T20:42:33.561Z,29.23
2023-02-02T20:47:36.033Z,31.58
2023-02-02T20:52:39.028Z,42.00
2023-02-02T20:57:41.637Z,31.55
2023-02-02T21:02:44.808Z,34.33
2023-02-02T21:07:47.866Z,46.40
2023-02-02T21:12:52.021Z,40.00
2023-02-02T21:17:55.655Z,45.58
2023-02-02T21:22:59.090Z,35.72
2023-02-02T21:28:01.807Z,39.30
2023-02-02T21:33:06.003Z,42.92
2023-02-02T21:38:14.235Z,43.35
2023-02-02T21:43:20.025Z,43.17
2023-02-02T21:48:39.392Z,39.63
2023-02-02T21:53:42.087Z,53.42
2023-02-02T21:58:46.074Z,43.28
2023-02-02T22:03:51.066Z,43.35
2023-02-02T22:09:02.347Z,40.35
2023-02-02T22:14:22.429Z,29.88
2023-02-02T22:19:38.036Z,36.15
2023-02-02T22:24:41.264Z,25.40
2023-02-02T22:29:43.801Z,29.38
2023-02-02T22:34:46.518Z,22.45
2023-02-02T22:39:49.025Z,30.73
2023-02-02T22:44:51.925Z,22.48
2023-02-02T22:49:54.580Z,25.65
2023-02-02T22:54:57.200Z,22.42
2023-02-02T22:59:59.978Z,24.65
2023-02-02T23:05:05.834Z,20.95
2023-02-02T23:10:08.722Z,27.07
2023-02-02T23:15:12.341Z,23.63
2023-02-02T23:20:16.244Z,27.67
2023-02-02T23:25:19.689Z,21.90
2023-02-02T23:30:24.820Z,25.90
2023-02-02T23:35:27.625Z,28.05
2023-02-02T23:40:32.319Z,26.23
2023-02-02T23:45:36.576Z,31.00
2023-02-02T23:50:39.762Z,42.13
2023-02-02T23:56:26.006Z,35.20
